sensor_id;sensor_type;location;lat;lon;timestamp;P1;durP1;ratioP1;P2;durP2;ratioP2
291;SDS011;23311;48.776;9.162;2022-08-21T00:01:43;3.00;;;2.50;;
291;SDS011;23311;48.776;9.162;2022-08-21T00:04:12;3.20;;;2.53;;
291;SDS011;23311;48.776;9.162;2022-08-21T00:06:47;3.40;;;2.10;;
291;SDS011;23311;48.776;9.162;2022-08-21T00:09:16;2.90;;;2.03;;
291;SDS011;23311;48.776;9.162;2022-08-21T00:11:44;2.70;;;2.40;;
291;SDS011;23311;48.776;9.162;2022-08-21T00:14:13;3.10;;;2.30;;
291;SDS011;23311;48.776;9.162;2022-08-21T00:16:43;3.20;;;1.93;;
291;SDS011;23311;48.776;9.162;2022-08-21T00:19:11;3.80;;;2.47;;
291;SDS011;23311;48.776;9.162;2022-08-21T00:21:39;2.90;;;2.47;;
291;SDS011;23311;48.776;9.162;2022-08-21T00:24:10;4.00;;;2.73;;
291;SDS011;23311;48.776;9.162;2022-08-21T00:26:39;3.03;;;2.43;;
291;SDS011;23311;48.776;9.162;2022-08-21T00:29:09;3.70;;;2.10;;
291;SDS011;23311;48.776;9.162;2022-08-21T00:31:39;4.10;;;2.90;;
291;SDS011;23311;48.776;9.162;2022-08-21T00:34:07;3.10;;;2.53;;
291;SDS011;23311;48.776;9.162;2022-08-21T00:36:36;3.63;;;3.07;;
291;SDS011;23311;48.776;9.162;2022-08-21T00:39:05;5.03;;;2.77;;
291;SDS011;23311;48.776;9.162;2022-08-21T00:41:35;2.73;;;2.20;;
291;SDS011;23311;48.776;9.162;2022-08-21T00:44:04;4.43;;;2.50;;
291;SDS011;23311;48.776;9.162;2022-08-21T00:46:34;4.43;;;2.50;;
291;SDS011;23311;48.776;9.162;2022-08-21T00:49:05;4.50;;;2.70;;
291;SDS011;23311;48.776;9.162;2022-08-21T00:51:35;4.80;;;2.50;;
291;SDS011;23311;48.776;9.162;2022-08-21T00:54:07;3.00;;;2.37;;
291;SDS011;23311;48.776;9.162;2022-08-21T00:56:45;4.53;;;3.53;;
291;SDS011;23311;48.776;9.162;2022-08-21T00:59:16;2.93;;;2.47;;
291;SDS011;23311;48.776;9.162;2022-08-21T01:01:46;3.63;;;2.40;;
291;SDS011;23311;48.776;9.162;2022-08-21T01:04:16;5.87;;;2.83;;
291;SDS011;23311;48.776;9.162;2022-08-21T01:06:44;3.40;;;2.70;;
291;SDS011;23311;48.776;9.162;2022-08-21T01:09:13;3.00;;;2.80;;
291;SDS011;23311;48.776;9.162;2022-08-21T01:11:42;3.33;;;2.83;;
291;SDS011;23311;48.776;9.162;2022-08-21T01:14:10;5.33;;;3.07;;
291;SDS011;23311;48.776;9.162;2022-08-21T01:16:40;3.43;;;2.63;;
291;SDS011;23311;48.776;9.162;2022-08-21T01:19:12;3.23;;;2.20;;
291;SDS011;23311;48.776;9.162;2022-08-21T01:21:42;2.23;;;2.07;;
291;SDS011;23311;48.776;9.162;2022-08-21T01:24:11;6.43;;;2.70;;
291;SDS011;23311;48.776;9.162;2022-08-21T01:26:40;4.33;;;2.40;;
291;SDS011;23311;48.776;9.162;2022-08-21T01:29:11;3.50;;;2.57;;
291;SDS011;23311;48.776;9.162;2022-08-21T01:31:43;2.70;;;2.50;;
291;SDS011;23311;48.776;9.162;2022-08-21T01:34:12;5.07;;;3.23;;
291;SDS011;23311;48.776;9.162;2022-08-21T01:36:43;2.60;;;2.40;;
291;SDS011;23311;48.776;9.162;2022-08-21T01:39:13;5.00;;;2.67;;
291;SDS011;23311;48.776;9.162;2022-08-21T01:41:42;3.70;;;2.33;;
291;SDS011;23311;48.776;9.162;2022-08-21T01:44:10;2.80;;;2.60;;
291;SDS011;23311;48.776;9.162;2022-08-21T01:46:38;4.13;;;2.97;;
291;SDS011;23311;48.776;9.162;2022-08-21T01:49:06;3.53;;;2.80;;
291;SDS011;23311;48.776;9.162;2022-08-21T01:51:35;3.27;;;2.43;;
291;SDS011;23311;48.776;9.162;2022-08-21T01:54:04;3.07;;;2.87;;
291;SDS011;23311;48.776;9.162;2022-08-21T01:56:35;3.43;;;2.70;;
291;SDS011;23311;48.776;9.162;2022-08-21T01:59:05;2.97;;;2.37;;
291;SDS011;23311;48.776;9.162;2022-08-21T02:01:33;4.80;;;3.30;;
291;SDS011;23311;48.776;9.162;2022-08-21T02:04:02;3.20;;;3.07;;
291;SDS011;23311;48.776;9.162;2022-08-21T02:06:30;5.00;;;2.90;;
291;SDS011;23311;48.776;9.162;2022-08-21T02:08:58;2.93;;;2.73;;
291;SDS011;23311;48.776;9.162;2022-08-21T02:11:28;2.77;;;2.63;;
291;SDS011;23311;48.776;9.162;2022-08-21T02:13:56;4.40;;;3.20;;
291;SDS011;23311;48.776;9.162;2022-08-21T02:16:24;3.73;;;2.70;;
291;SDS011;23311;48.776;9.162;2022-08-21T02:18:52;3.20;;;2.37;;
291;SDS011;23311;48.776;9.162;2022-08-21T02:21:20;3.23;;;2.60;;
291;SDS011;23311;48.776;9.162;2022-08-21T02:23:48;3.80;;;3.00;;
291;SDS011;23311;48.776;9.162;2022-08-21T02:26:16;3.70;;;2.67;;
291;SDS011;23311;48.776;9.162;2022-08-21T02:28:45;7.23;;;3.10;;
291;SDS011;23311;48.776;9.162;2022-08-21T02:31:14;4.17;;;2.90;;
291;SDS011;23311;48.776;9.162;2022-08-21T02:33:42;3.73;;;2.80;;
291;SDS011;23311;48.776;9.162;2022-08-21T02:36:11;2.93;;;2.57;;
291;SDS011;23311;48.776;9.162;2022-08-21T02:38:40;4.00;;;2.53;;
291;SDS011;23311;48.776;9.162;2022-08-21T02:41:10;3.77;;;2.83;;
291;SDS011;23311;48.776;9.162;2022-08-21T02:43:39;3.60;;;2.80;;
291;SDS011;23311;48.776;9.162;2022-08-21T02:46:09;7.13;;;2.87;;
291;SDS011;23311;48.776;9.162;2022-08-21T02:48:39;4.93;;;2.90;;
291;SDS011;23311;48.776;9.162;2022-08-21T02:51:10;4.33;;;3.10;;
291;SDS011;23311;48.776;9.162;2022-08-21T02:53:43;3.60;;;3.40;;
291;SDS011;23311;48.776;9.162;2022-08-21T02:56:13;3.77;;;3.40;;
291;SDS011;23311;48.776;9.162;2022-08-21T02:58:45;6.03;;;3.03;;
291;SDS011;23311;48.776;9.162;2022-08-21T03:01:16;5.50;;;3.43;;
291;SDS011;23311;48.776;9.162;2022-08-21T03:03:46;4.20;;;3.47;;
291;SDS011;23311;48.776;9.162;2022-08-21T03:06:18;3.80;;;3.20;;
291;SDS011;23311;48.776;9.162;2022-08-21T03:08:47;4.03;;;3.53;;
291;SDS011;23311;48.776;9.162;2022-08-21T03:11:16;4.13;;;3.30;;
291;SDS011;23311;48.776;9.162;2022-08-21T03:13:46;6.57;;;4.00;;
291;SDS011;23311;48.776;9.162;2022-08-21T03:16:14;5.43;;;4.20;;
291;SDS011;23311;48.776;9.162;2022-08-21T03:18:45;6.07;;;4.40;;
291;SDS011;23311;48.776;9.162;2022-08-21T03:21:13;6.10;;;4.33;;
291;SDS011;23311;48.776;9.162;2022-08-21T03:23:42;4.67;;;3.23;;
291;SDS011;23311;48.776;9.162;2022-08-21T03:26:10;4.67;;;4.40;;
291;SDS011;23311;48.776;9.162;2022-08-21T03:28:39;4.00;;;3.53;;
291;SDS011;23311;48.776;9.162;2022-08-21T03:31:07;5.10;;;3.60;;
291;SDS011;23311;48.776;9.162;2022-08-21T03:33:36;5.10;;;4.13;;
291;SDS011;23311;48.776;9.162;2022-08-21T03:36:06;5.73;;;3.70;;
291;SDS011;23311;48.776;9.162;2022-08-21T03:38:35;5.43;;;3.80;;
291;SDS011;23311;48.776;9.162;2022-08-21T03:41:04;5.73;;;4.00;;
291;SDS011;23311;48.776;9.162;2022-08-21T03:43:33;3.30;;;3.13;;
291;SDS011;23311;48.776;9.162;2022-08-21T03:46:03;3.80;;;3.30;;
291;SDS011;23311;48.776;9.162;2022-08-21T03:48:32;5.27;;;3.00;;
291;SDS011;23311;48.776;9.162;2022-08-21T03:51:04;6.70;;;3.30;;
291;SDS011;23311;48.776;9.162;2022-08-21T03:53:33;4.80;;;3.60;;
291;SDS011;23311;48.776;9.162;2022-08-21T03:56:02;6.07;;;3.60;;
291;SDS011;23311;48.776;9.162;2022-08-21T03:58:31;4.33;;;3.57;;
291;SDS011;23311;48.776;9.162;2022-08-21T04:01:00;4.90;;;3.33;;
291;SDS011;23311;48.776;9.162;2022-08-21T04:03:30;5.70;;;3.77;;
291;SDS011;23311;48.776;9.162;2022-08-21T04:05:58;5.87;;;4.17;;
291;SDS011;23311;48.776;9.162;2022-08-21T04:08:28;4.00;;;3.40;;
291;SDS011;23311;48.776;9.162;2022-08-21T04:10:56;8.80;;;4.10;;
291;SDS011;23311;48.776;9.162;2022-08-21T04:13:26;4.20;;;3.47;;
291;SDS011;23311;48.776;9.162;2022-08-21T04:15:55;3.83;;;3.50;;
291;SDS011;23311;48.776;9.162;2022-08-21T04:18:24;4.20;;;3.23;;
291;SDS011;23311;48.776;9.162;2022-08-21T04:20:52;4.60;;;3.57;;
291;SDS011;23311;48.776;9.162;2022-08-21T04:23:23;3.63;;;3.40;;
291;SDS011;23311;48.776;9.162;2022-08-21T04:25:53;3.63;;;3.23;;
291;SDS011;23311;48.776;9.162;2022-08-21T04:28:23;4.90;;;3.83;;
291;SDS011;23311;48.776;9.162;2022-08-21T04:30:56;3.20;;;3.00;;
291;SDS011;23311;48.776;9.162;2022-08-21T04:33:25;3.90;;;3.33;;
291;SDS011;23311;48.776;9.162;2022-08-21T04:35:53;3.60;;;3.40;;
291;SDS011;23311;48.776;9.162;2022-08-21T04:38:21;4.80;;;3.33;;
291;SDS011;23311;48.776;9.162;2022-08-21T04:40:49;7.50;;;3.37;;
291;SDS011;23311;48.776;9.162;2022-08-21T04:43:20;3.57;;;3.30;;
291;SDS011;23311;48.776;9.162;2022-08-21T04:45:50;4.67;;;3.77;;
291;SDS011;23311;48.776;9.162;2022-08-21T04:48:20;4.93;;;3.30;;
291;SDS011;23311;48.776;9.162;2022-08-21T04:50:51;3.67;;;3.40;;
291;SDS011;23311;48.776;9.162;2022-08-21T04:53:23;3.30;;;2.63;;
291;SDS011;23311;48.776;9.162;2022-08-21T04:55:54;6.30;;;3.33;;
291;SDS011;23311;48.776;9.162;2022-08-21T04:58:24;5.10;;;3.37;;
291;SDS011;23311;48.776;9.162;2022-08-21T05:00:54;3.60;;;2.70;;
291;SDS011;23311;48.776;9.162;2022-08-21T05:03:25;4.50;;;3.03;;
291;SDS011;23311;48.776;9.162;2022-08-21T05:05:53;4.37;;;3.07;;
291;SDS011;23311;48.776;9.162;2022-08-21T05:08:22;5.80;;;3.97;;
291;SDS011;23311;48.776;9.162;2022-08-21T05:10:52;3.40;;;3.07;;
291;SDS011;23311;48.776;9.162;2022-08-21T05:13:27;5.97;;;3.40;;
291;SDS011;23311;48.776;9.162;2022-08-21T05:15:55;5.37;;;3.67;;
291;SDS011;23311;48.776;9.162;2022-08-21T05:18:24;4.30;;;3.90;;
291;SDS011;23311;48.776;9.162;2022-08-21T05:20:52;4.60;;;3.47;;
291;SDS011;23311;48.776;9.162;2022-08-21T05:23:20;3.70;;;3.13;;
291;SDS011;23311;48.776;9.162;2022-08-21T05:25:49;4.20;;;2.97;;
291;SDS011;23311;48.776;9.162;2022-08-21T05:28:17;4.70;;;3.60;;
291;SDS011;23311;48.776;9.162;2022-08-21T05:30:46;4.93;;;3.33;;
291;SDS011;23311;48.776;9.162;2022-08-21T05:33:14;4.00;;;3.73;;
291;SDS011;23311;48.776;9.162;2022-08-21T05:35:42;3.87;;;3.67;;
291;SDS011;23311;48.776;9.162;2022-08-21T05:38:11;3.80;;;3.43;;
291;SDS011;23311;48.776;9.162;2022-08-21T05:40:43;4.20;;;3.80;;
291;SDS011;23311;48.776;9.162;2022-08-21T05:43:12;6.67;;;3.60;;
291;SDS011;23311;48.776;9.162;2022-08-21T05:45:41;6.63;;;3.60;;
291;SDS011;23311;48.776;9.162;2022-08-21T05:48:12;4.73;;;3.43;;
291;SDS011;23311;48.776;9.162;2022-08-21T05:50:42;8.97;;;4.37;;
291;SDS011;23311;48.776;9.162;2022-08-21T05:53:11;8.00;;;3.87;;
291;SDS011;23311;48.776;9.162;2022-08-21T05:55:40;4.90;;;4.40;;
291;SDS011;23311;48.776;9.162;2022-08-21T05:58:12;8.13;;;4.00;;
291;SDS011;23311;48.776;9.162;2022-08-21T06:00:41;4.13;;;3.67;;
291;SDS011;23311;48.776;9.162;2022-08-21T06:03:12;3.90;;;3.57;;
291;SDS011;23311;48.776;9.162;2022-08-21T06:05:41;4.53;;;3.57;;
291;SDS011;23311;48.776;9.162;2022-08-21T06:08:10;4.73;;;4.13;;
291;SDS011;23311;48.776;9.162;2022-08-21T06:10:38;4.30;;;3.47;;
291;SDS011;23311;48.776;9.162;2022-08-21T06:13:06;3.60;;;3.40;;
291;SDS011;23311;48.776;9.162;2022-08-21T06:15:34;4.60;;;4.10;;
291;SDS011;23311;48.776;9.162;2022-08-21T06:18:02;3.33;;;3.10;;
291;SDS011;23311;48.776;9.162;2022-08-21T06:20:32;4.20;;;3.90;;
291;SDS011;23311;48.776;9.162;2022-08-21T06:23:01;3.77;;;2.93;;
291;SDS011;23311;48.776;9.162;2022-08-21T06:25:29;5.07;;;3.57;;
291;SDS011;23311;48.776;9.162;2022-08-21T06:28:01;4.00;;;3.50;;
291;SDS011;23311;48.776;9.162;2022-08-21T06:30:30;5.20;;;3.33;;
291;SDS011;23311;48.776;9.162;2022-08-21T06:32:59;6.23;;;3.20;;
291;SDS011;23311;48.776;9.162;2022-08-21T06:35:28;6.77;;;3.90;;
291;SDS011;23311;48.776;9.162;2022-08-21T06:37:58;3.50;;;3.10;;
291;SDS011;23311;48.776;9.162;2022-08-21T06:40:26;5.13;;;3.73;;
291;SDS011;23311;48.776;9.162;2022-08-21T06:43:04;3.87;;;3.67;;
291;SDS011;23311;48.776;9.162;2022-08-21T06:45:34;5.27;;;3.40;;
291;SDS011;23311;48.776;9.162;2022-08-21T06:48:02;3.67;;;3.37;;
291;SDS011;23311;48.776;9.162;2022-08-21T06:50:31;3.53;;;3.40;;
291;SDS011;23311;48.776;9.162;2022-08-21T06:53:03;3.63;;;3.40;;
291;SDS011;23311;48.776;9.162;2022-08-21T06:55:33;4.90;;;3.00;;
291;SDS011;23311;48.776;9.162;2022-08-21T06:58:02;5.07;;;3.20;;
291;SDS011;23311;48.776;9.162;2022-08-21T07:00:31;3.80;;;3.07;;
291;SDS011;23311;48.776;9.162;2022-08-21T07:02:59;4.40;;;3.00;;
291;SDS011;23311;48.776;9.162;2022-08-21T07:05:28;5.20;;;3.87;;
291;SDS011;23311;48.776;9.162;2022-08-21T07:07:58;3.80;;;3.63;;
291;SDS011;23311;48.776;9.162;2022-08-21T07:10:28;3.70;;;3.17;;
291;SDS011;23311;48.776;9.162;2022-08-21T07:12:56;4.17;;;2.90;;
291;SDS011;23311;48.776;9.162;2022-08-21T07:15:27;4.50;;;3.10;;
291;SDS011;23311;48.776;9.162;2022-08-21T07:17:56;4.40;;;3.10;;
291;SDS011;23311;48.776;9.162;2022-08-21T07:20:24;6.20;;;4.33;;
291;SDS011;23311;48.776;9.162;2022-08-21T07:22:53;5.60;;;3.70;;
291;SDS011;23311;48.776;9.162;2022-08-21T07:25:21;5.83;;;3.60;;
291;SDS011;23311;48.776;9.162;2022-08-21T07:27:51;4.77;;;3.53;;
291;SDS011;23311;48.776;9.162;2022-08-21T07:30:19;7.27;;;3.63;;
291;SDS011;23311;48.776;9.162;2022-08-21T07:32:47;4.03;;;2.90;;
291;SDS011;23311;48.776;9.162;2022-08-21T07:35:16;4.20;;;3.40;;
291;SDS011;23311;48.776;9.162;2022-08-21T07:37:45;5.10;;;3.50;;
291;SDS011;23311;48.776;9.162;2022-08-21T07:40:14;5.23;;;3.53;;
291;SDS011;23311;48.776;9.162;2022-08-21T07:42:44;3.60;;;3.37;;
291;SDS011;23311;48.776;9.162;2022-08-21T07:45:17;4.83;;;3.20;;
291;SDS011;23311;48.776;9.162;2022-08-21T07:47:47;3.87;;;2.97;;
291;SDS011;23311;48.776;9.162;2022-08-21T07:50:22;4.20;;;3.17;;
291;SDS011;23311;48.776;9.162;2022-08-21T07:52:50;3.90;;;3.10;;
291;SDS011;23311;48.776;9.162;2022-08-21T07:55:19;4.30;;;3.13;;
291;SDS011;23311;48.776;9.162;2022-08-21T07:57:48;4.00;;;3.77;;
291;SDS011;23311;48.776;9.162;2022-08-21T08:00:19;4.30;;;3.00;;
291;SDS011;23311;48.776;9.162;2022-08-21T08:02:49;5.47;;;3.30;;
291;SDS011;23311;48.776;9.162;2022-08-21T08:05:22;4.03;;;3.10;;
291;SDS011;23311;48.776;9.162;2022-08-21T08:07:52;6.33;;;3.70;;
291;SDS011;23311;48.776;9.162;2022-08-21T08:10:20;3.47;;;3.03;;
291;SDS011;23311;48.776;9.162;2022-08-21T08:12:50;3.87;;;3.30;;
291;SDS011;23311;48.776;9.162;2022-08-21T08:15:23;3.87;;;3.43;;
291;SDS011;23311;48.776;9.162;2022-08-21T08:17:52;5.30;;;3.60;;
291;SDS011;23311;48.776;9.162;2022-08-21T08:20:21;5.60;;;3.63;;
291;SDS011;23311;48.776;9.162;2022-08-21T08:22:51;4.43;;;3.27;;
291;SDS011;23311;48.776;9.162;2022-08-21T08:25:20;4.20;;;3.03;;
291;SDS011;23311;48.776;9.162;2022-08-21T08:27:49;4.73;;;3.53;;
291;SDS011;23311;48.776;9.162;2022-08-21T08:30:17;5.43;;;3.60;;
291;SDS011;23311;48.776;9.162;2022-08-21T08:32:48;4.97;;;3.47;;
291;SDS011;23311;48.776;9.162;2022-08-21T08:35:16;9.57;;;4.70;;
291;SDS011;23311;48.776;9.162;2022-08-21T08:37:49;5.67;;;3.67;;
291;SDS011;23311;48.776;9.162;2022-08-21T08:40:19;3.43;;;3.23;;
291;SDS011;23311;48.776;9.162;2022-08-21T08:43:08;6.07;;;3.80;;
291;SDS011;23311;48.776;9.162;2022-08-21T08:45:40;4.00;;;3.37;;
291;SDS011;23311;48.776;9.162;2022-08-21T08:48:14;5.13;;;3.60;;
291;SDS011;23311;48.776;9.162;2022-08-21T08:50:59;3.93;;;3.57;;
291;SDS011;23311;48.776;9.162;2022-08-21T08:53:30;4.10;;;3.70;;
291;SDS011;23311;48.776;9.162;2022-08-21T08:56:01;3.87;;;3.20;;
291;SDS011;23311;48.776;9.162;2022-08-21T08:58:33;3.27;;;3.00;;
291;SDS011;23311;48.776;9.162;2022-08-21T09:01:05;5.93;;;4.03;;
291;SDS011;23311;48.776;9.162;2022-08-21T09:03:46;5.93;;;3.90;;
291;SDS011;23311;48.776;9.162;2022-08-21T09:06:19;5.90;;;3.43;;
291;SDS011;23311;48.776;9.162;2022-08-21T09:08:59;5.33;;;3.13;;
291;SDS011;23311;48.776;9.162;2022-08-21T09:11:37;5.50;;;3.47;;
291;SDS011;23311;48.776;9.162;2022-08-21T09:14:14;4.97;;;3.77;;
291;SDS011;23311;48.776;9.162;2022-08-21T09:16:53;5.00;;;3.60;;
291;SDS011;23311;48.776;9.162;2022-08-21T09:19:33;4.50;;;3.70;;
291;SDS011;23311;48.776;9.162;2022-08-21T09:22:14;4.83;;;4.17;;
291;SDS011;23311;48.776;9.162;2022-08-21T09:24:53;4.30;;;3.50;;
291;SDS011;23311;48.776;9.162;2022-08-21T09:27:29;5.70;;;4.20;;
291;SDS011;23311;48.776;9.162;2022-08-21T09:29:58;4.20;;;3.97;;
291;SDS011;23311;48.776;9.162;2022-08-21T09:32:30;7.03;;;3.93;;
291;SDS011;23311;48.776;9.162;2022-08-21T09:35:06;4.57;;;3.37;;
291;SDS011;23311;48.776;9.162;2022-08-21T09:37:45;8.07;;;3.60;;
291;SDS011;23311;48.776;9.162;2022-08-21T09:40:20;4.47;;;3.70;;
291;SDS011;23311;48.776;9.162;2022-08-21T09:42:57;4.90;;;3.67;;
291;SDS011;23311;48.776;9.162;2022-08-21T09:45:27;5.97;;;4.50;;
291;SDS011;23311;48.776;9.162;2022-08-21T09:48:07;4.23;;;3.77;;
291;SDS011;23311;48.776;9.162;2022-08-21T09:50:38;5.50;;;3.77;;
291;SDS011;23311;48.776;9.162;2022-08-21T09:53:14;6.10;;;3.40;;
291;SDS011;23311;48.776;9.162;2022-08-21T09:55:48;4.63;;;3.30;;
291;SDS011;23311;48.776;9.162;2022-08-21T09:58:37;4.70;;;3.27;;
291;SDS011;23311;48.776;9.162;2022-08-21T10:01:12;5.90;;;4.03;;
291;SDS011;23311;48.776;9.162;2022-08-21T10:03:41;4.70;;;3.90;;
291;SDS011;23311;48.776;9.162;2022-08-21T10:06:19;6.37;;;3.83;;
291;SDS011;23311;48.776;9.162;2022-08-21T10:08:50;4.83;;;3.60;;
291;SDS011;23311;48.776;9.162;2022-08-21T10:11:18;8.23;;;4.50;;
291;SDS011;23311;48.776;9.162;2022-08-21T10:13:55;4.40;;;3.67;;
291;SDS011;23311;48.776;9.162;2022-08-21T10:16:33;5.87;;;4.07;;
291;SDS011;23311;48.776;9.162;2022-08-21T10:19:14;5.83;;;4.27;;
291;SDS011;23311;48.776;9.162;2022-08-21T10:21:53;5.97;;;4.20;;
291;SDS011;23311;48.776;9.162;2022-08-21T10:24:29;5.67;;;3.77;;
291;SDS011;23311;48.776;9.162;2022-08-21T10:27:05;5.80;;;4.20;;
291;SDS011;23311;48.776;9.162;2022-08-21T10:29:47;4.93;;;4.00;;
291;SDS011;23311;48.776;9.162;2022-08-21T10:35:17;5.93;;;4.20;;
291;SDS011;23311;48.776;9.162;2022-08-21T10:38:06;5.03;;;3.50;;
291;SDS011;23311;48.776;9.162;2022-08-21T10:41:20;6.97;;;4.20;;
291;SDS011;23311;48.776;9.162;2022-08-21T10:43:59;4.40;;;3.33;;
291;SDS011;23311;48.776;9.162;2022-08-21T10:46:36;5.23;;;3.40;;
291;SDS011;23311;48.776;9.162;2022-08-21T10:49:13;8.43;;;4.27;;
291;SDS011;23311;48.776;9.162;2022-08-21T10:51:49;7.20;;;3.93;;
291;SDS011;23311;48.776;9.162;2022-08-21T10:54:32;4.87;;;3.80;;
291;SDS011;23311;48.776;9.162;2022-08-21T10:57:09;5.47;;;3.60;;
291;SDS011;23311;48.776;9.162;2022-08-21T10:59:53;5.60;;;4.20;;
291;SDS011;23311;48.776;9.162;2022-08-21T11:02:29;5.70;;;3.80;;
291;SDS011;23311;48.776;9.162;2022-08-21T11:05:01;6.90;;;3.80;;
291;SDS011;23311;48.776;9.162;2022-08-21T11:07:35;5.47;;;4.00;;
291;SDS011;23311;48.776;9.162;2022-08-21T11:10:10;5.50;;;4.13;;
291;SDS011;23311;48.776;9.162;2022-08-21T11:12:46;3.90;;;3.60;;
291;SDS011;23311;48.776;9.162;2022-08-21T11:18:09;4.87;;;3.80;;
291;SDS011;23311;48.776;9.162;2022-08-21T11:20:47;7.80;;;4.27;;
291;SDS011;23311;48.776;9.162;2022-08-21T11:23:20;5.57;;;4.27;;
291;SDS011;23311;48.776;9.162;2022-08-21T11:25:53;5.53;;;3.70;;
291;SDS011;23311;48.776;9.162;2022-08-21T11:28:29;4.23;;;3.97;;
291;SDS011;23311;48.776;9.162;2022-08-21T11:31:04;6.30;;;3.67;;
291;SDS011;23311;48.776;9.162;2022-08-21T11:33:46;3.23;;;3.10;;
291;SDS011;23311;48.776;9.162;2022-08-21T11:36:22;5.17;;;3.80;;
291;SDS011;23311;48.776;9.162;2022-08-21T11:38:57;4.20;;;3.80;;
291;SDS011;23311;48.776;9.162;2022-08-21T11:41:36;4.50;;;3.87;;
291;SDS011;23311;48.776;9.162;2022-08-21T11:44:10;5.03;;;3.73;;
291;SDS011;23311;48.776;9.162;2022-08-21T11:46:47;6.80;;;4.30;;
291;SDS011;23311;48.776;9.162;2022-08-21T11:49:30;4.47;;;3.13;;
291;SDS011;23311;48.776;9.162;2022-08-21T11:52:13;4.17;;;3.63;;
291;SDS011;23311;48.776;9.162;2022-08-21T11:54:47;4.57;;;3.97;;
291;SDS011;23311;48.776;9.162;2022-08-21T11:57:24;4.57;;;3.40;;
291;SDS011;23311;48.776;9.162;2022-08-21T11:59:57;4.63;;;3.90;;
291;SDS011;23311;48.776;9.162;2022-08-21T12:02:29;4.97;;;4.10;;
291;SDS011;23311;48.776;9.162;2022-08-21T12:05:03;5.90;;;3.80;;
291;SDS011;23311;48.776;9.162;2022-08-21T12:07:35;6.00;;;3.80;;
291;SDS011;23311;48.776;9.162;2022-08-21T12:10:07;6.87;;;4.10;;
291;SDS011;23311;48.776;9.162;2022-08-21T12:12:39;4.87;;;3.77;;
291;SDS011;23311;48.776;9.162;2022-08-21T12:15:13;4.10;;;3.60;;
291;SDS011;23311;48.776;9.162;2022-08-21T12:17:54;5.63;;;3.60;;
291;SDS011;23311;48.776;9.162;2022-08-21T12:20:32;3.57;;;3.23;;
291;SDS011;23311;48.776;9.162;2022-08-21T12:23:24;3.70;;;3.50;;
291;SDS011;23311;48.776;9.162;2022-08-21T12:26:01;3.60;;;3.40;;
291;SDS011;23311;48.776;9.162;2022-08-21T12:28:46;4.13;;;3.93;;
291;SDS011;23311;48.776;9.162;2022-08-21T12:31:18;6.13;;;3.30;;
291;SDS011;23311;48.776;9.162;2022-08-21T12:33:53;4.60;;;3.70;;
291;SDS011;23311;48.776;9.162;2022-08-21T12:36:25;4.97;;;3.47;;
291;SDS011;23311;48.776;9.162;2022-08-21T12:39:12;7.13;;;3.80;;
291;SDS011;23311;48.776;9.162;2022-08-21T12:41:45;5.33;;;3.83;;
291;SDS011;23311;48.776;9.162;2022-08-21T12:44:20;6.17;;;4.50;;
291;SDS011;23311;48.776;9.162;2022-08-21T12:46:54;5.90;;;4.30;;
291;SDS011;23311;48.776;9.162;2022-08-21T12:49:26;5.30;;;4.23;;
291;SDS011;23311;48.776;9.162;2022-08-21T12:52:01;6.03;;;3.60;;
291;SDS011;23311;48.776;9.162;2022-08-21T12:54:37;4.60;;;3.37;;
291;SDS011;23311;48.776;9.162;2022-08-21T12:57:08;5.07;;;3.40;;
291;SDS011;23311;48.776;9.162;2022-08-21T12:59:50;4.00;;;3.80;;
291;SDS011;23311;48.776;9.162;2022-08-21T13:02:20;3.87;;;3.43;;
291;SDS011;23311;48.776;9.162;2022-08-21T13:04:52;4.10;;;3.10;;
291;SDS011;23311;48.776;9.162;2022-08-21T13:07:25;4.90;;;3.60;;
291;SDS011;23311;48.776;9.162;2022-08-21T13:09:56;5.80;;;3.80;;
291;SDS011;23311;48.776;9.162;2022-08-21T13:12:27;5.30;;;4.00;;
291;SDS011;23311;48.776;9.162;2022-08-21T13:15:00;4.43;;;4.13;;
291;SDS011;23311;48.776;9.162;2022-08-21T13:17:36;4.40;;;3.30;;
291;SDS011;23311;48.776;9.162;2022-08-21T13:20:08;5.67;;;4.00;;
291;SDS011;23311;48.776;9.162;2022-08-21T13:22:41;4.90;;;4.27;;
291;SDS011;23311;48.776;9.162;2022-08-21T13:25:12;4.37;;;3.50;;
291;SDS011;23311;48.776;9.162;2022-08-21T13:27:43;3.30;;;3.07;;
291;SDS011;23311;48.776;9.162;2022-08-21T13:30:24;3.80;;;3.60;;
291;SDS011;23311;48.776;9.162;2022-08-21T13:32:55;4.50;;;3.20;;
291;SDS011;23311;48.776;9.162;2022-08-21T13:35:26;4.73;;;3.43;;
291;SDS011;23311;48.776;9.162;2022-08-21T13:37:58;4.53;;;3.80;;
291;SDS011;23311;48.776;9.162;2022-08-21T13:40:29;3.60;;;3.23;;
291;SDS011;23311;48.776;9.162;2022-08-21T13:42:59;4.27;;;3.37;;
291;SDS011;23311;48.776;9.162;2022-08-21T13:45:31;5.03;;;3.37;;
291;SDS011;23311;48.776;9.162;2022-08-21T13:48:00;6.43;;;4.03;;
291;SDS011;23311;48.776;9.162;2022-08-21T13:50:40;3.50;;;3.30;;
291;SDS011;23311;48.776;9.162;2022-08-21T13:53:19;5.83;;;3.70;;
291;SDS011;23311;48.776;9.162;2022-08-21T13:55:50;5.50;;;3.87;;
291;SDS011;23311;48.776;9.162;2022-08-21T13:58:26;4.23;;;3.67;;
291;SDS011;23311;48.776;9.162;2022-08-21T14:00:57;7.00;;;4.00;;
291;SDS011;23311;48.776;9.162;2022-08-21T14:03:32;3.97;;;3.70;;
291;SDS011;23311;48.776;9.162;2022-08-21T14:06:10;4.30;;;4.00;;
291;SDS011;23311;48.776;9.162;2022-08-21T14:08:40;4.00;;;3.60;;
291;SDS011;23311;48.776;9.162;2022-08-21T14:11:10;3.60;;;3.23;;
291;SDS011;23311;48.776;9.162;2022-08-21T14:13:40;3.70;;;3.50;;
291;SDS011;23311;48.776;9.162;2022-08-21T14:16:13;6.17;;;3.70;;
291;SDS011;23311;48.776;9.162;2022-08-21T14:18:45;3.60;;;3.10;;
291;SDS011;23311;48.776;9.162;2022-08-21T14:21:23;4.30;;;3.40;;
291;SDS011;23311;48.776;9.162;2022-08-21T14:24:05;3.70;;;3.53;;
291;SDS011;23311;48.776;9.162;2022-08-21T14:26:36;3.13;;;3.03;;
291;SDS011;23311;48.776;9.162;2022-08-21T14:29:15;4.40;;;3.37;;
291;SDS011;23311;48.776;9.162;2022-08-21T14:31:50;4.20;;;3.20;;
291;SDS011;23311;48.776;9.162;2022-08-21T14:34:20;3.70;;;3.27;;
291;SDS011;23311;48.776;9.162;2022-08-21T14:36:49;5.87;;;3.30;;
291;SDS011;23311;48.776;9.162;2022-08-21T14:39:17;3.70;;;2.80;;
291;SDS011;23311;48.776;9.162;2022-08-21T14:41:46;3.87;;;3.17;;
291;SDS011;23311;48.776;9.162;2022-08-21T14:44:15;4.37;;;3.57;;
291;SDS011;23311;48.776;9.162;2022-08-21T14:46:45;3.30;;;3.00;;
291;SDS011;23311;48.776;9.162;2022-08-21T14:49:24;5.10;;;3.67;;
291;SDS011;23311;48.776;9.162;2022-08-21T14:51:54;3.73;;;2.83;;
291;SDS011;23311;48.776;9.162;2022-08-21T14:54:24;5.07;;;3.40;;
291;SDS011;23311;48.776;9.162;2022-08-21T14:56:57;4.37;;;3.27;;
291;SDS011;23311;48.776;9.162;2022-08-21T14:59:27;5.13;;;3.30;;
291;SDS011;23311;48.776;9.162;2022-08-21T15:01:55;4.00;;;2.73;;
291;SDS011;23311;48.776;9.162;2022-08-21T15:04:25;4.40;;;3.20;;
291;SDS011;23311;48.776;9.162;2022-08-21T15:06:53;5.10;;;3.40;;
291;SDS011;23311;48.776;9.162;2022-08-21T15:09:21;5.60;;;3.47;;
291;SDS011;23311;48.776;9.162;2022-08-21T15:11:50;3.63;;;3.43;;
291;SDS011;23311;48.776;9.162;2022-08-21T15:14:20;7.10;;;3.40;;
291;SDS011;23311;48.776;9.162;2022-08-21T15:16:49;4.43;;;2.93;;
291;SDS011;23311;48.776;9.162;2022-08-21T15:19:18;4.50;;;3.20;;
291;SDS011;23311;48.776;9.162;2022-08-21T15:21:48;4.30;;;2.93;;
291;SDS011;23311;48.776;9.162;2022-08-21T15:24:16;3.47;;;3.10;;
291;SDS011;23311;48.776;9.162;2022-08-21T15:26:44;3.20;;;3.00;;
291;SDS011;23311;48.776;9.162;2022-08-21T15:29:12;5.53;;;3.57;;
291;SDS011;23311;48.776;9.162;2022-08-21T15:31:52;4.30;;;3.40;;
291;SDS011;23311;48.776;9.162;2022-08-21T15:34:22;4.70;;;3.67;;
291;SDS011;23311;48.776;9.162;2022-08-21T15:36:55;4.17;;;3.00;;
291;SDS011;23311;48.776;9.162;2022-08-21T15:39:24;3.97;;;3.10;;
291;SDS011;23311;48.776;9.162;2022-08-21T15:41:57;4.20;;;3.10;;
291;SDS011;23311;48.776;9.162;2022-08-21T15:44:35;3.90;;;2.70;;
291;SDS011;23311;48.776;9.162;2022-08-21T15:47:05;3.30;;;3.10;;
291;SDS011;23311;48.776;9.162;2022-08-21T15:49:33;4.07;;;3.80;;